Time;durP1;ratioP1;P1;durP2;ratioP2;P2;SDS_P1;SDS_P2;PMS_P1;PMS_P2;Temp;Humidity;BMP_temperature;BMP_pressure;BME280_temperature;BME280_humidity;BME280_pressure;Samples;Min_cycle;Max_cycle;Signal;HPM_P1;HPM_P2
2022/09/13 00:01:28;;;;;;;;;;;;;;;18.51;73.16;100939.69;5046544;28;19925;-55
2022/09/13 00:03:53;;;;;;;;;;;;;;;18.52;73.13;100939.47;5048665;28;19968;-55
2022/09/13 00:06:18;;;;;;;;;;;;;;;18.53;72.64;100941.13;5046054;28;19925;-53
2022/09/13 00:08:44;;;;;;;;;;;;;;;18.53;72.90;100935.75;5039581;28;19917;-55
2022/09/13 00:11:20;;;;;;;;;;;;;;;18.56;72.25;100937.16;5044545;28;19921;-56
2022/09/13 00:13:46;;;;;;;;;;;;;;;18.57;72.95;100945.00;5047097;28;19970;-54
2022/09/13 00:16:16;;;;;;;;;;;;;;;18.58;72.77;100940.47;5045835;28;19921;-56
2022/09/13 00:18:41;;;;;;;;;;;;;;;18.58;72.97;100933.22;5041465;28;19925;-55
2022/09/13 00:21:08;;;;;;;;;;;;;;;18.60;72.71;100929.47;5041588;28;19916;-55
2022/09/13 00:23:34;;;;;;;;;;;;;;;18.58;72.84;100935.06;5040045;28;20511;-56
2022/09/13 00:26:19;;;;;;;;;;;;;;;18.57;72.76;100930.75;5044634;28;19917;-55
2022/09/13 00:28:44;;;;;;;;;;;;;;;18.55;72.47;100925.59;5047687;28;20319;-55
2022/09/13 00:31:09;;;;;;;;;;;;;;;18.54;72.48;100921.25;5046886;28;19917;-54
2022/09/13 00:33:35;;;;;;;;;;;;;;;18.55;72.04;100911.31;5044783;28;19936;-54
2022/09/13 00:36:07;;;;;;;;;;;;;;;18.56;72.34;100907.56;5052876;28;19921;-54
2022/09/13 00:38:36;;;;;;;;;;;;;;;18.56;71.99;100910.28;5052380;28;19923;-55
2022/09/13 00:41:03;;;;;;;;;;;;;;;18.55;72.53;100900.56;5051898;28;20465;-56
2022/09/13 00:43:40;;;;;;;;;;;;;;;18.56;72.27;100902.19;5047188;28;19963;-55
2022/09/13 00:46:06;;;;;;;;;;;;;;;18.55;72.26;100905.94;5045896;28;19944;-55
2022/09/13 00:48:32;;;;;;;;;;;;;;;18.55;72.27;100897.88;5046610;28;19959;-55
2022/09/13 00:50:57;;;;;;;;;;;;;;;18.55;72.14;100900.56;5047270;28;19920;-55
2022/09/13 00:53:30;;;;;;;;;;;;;;;18.54;72.37;100899.72;5046350;28;19912;-55
2022/09/13 00:55:57;;;;;;;;;;;;;;;18.54;72.24;100890.84;5045468;28;20252;-56
2022/09/13 00:58:26;;;;;;;;;;;;;;;18.53;72.31;100890.03;5040346;28;20565;-53
2022/09/13 01:00:52;;;;;;;;;;;;;;;18.53;72.37;100890.03;5045266;28;20015;-56
2022/09/13 01:03:18;;;;;;;;;;;;;;;18.54;72.31;100896.22;5045629;28;20004;-54
2022/09/13 01:05:48;;;;;;;;;;;;;;;18.52;72.47;100890.25;5046823;28;19924;-56
2022/09/13 01:08:21;;;;;;;;;;;;;;;18.50;72.05;100892.31;5046671;28;20003;-54
2022/09/13 01:10:48;;;;;;;;;;;;;;;18.48;71.99;100887.16;5038551;28;19913;-54
2022/09/13 01:13:24;;;;;;;;;;;;;;;18.48;72.21;100889.00;5034418;28;19917;-54
2022/09/13 01:15:49;;;;;;;;;;;;;;;18.47;71.84;100895.44;5037027;28;19917;-55
2022/09/13 01:18:15;;;;;;;;;;;;;;;18.44;71.56;100894.00;5042016;28;19982;-55
2022/09/13 01:20:46;;;;;;;;;;;;;;;18.42;71.73;100889.91;5044128;28;19928;-56
2022/09/13 01:23:26;;;;;;;;;;;;;;;18.43;71.76;100899.63;5043698;28;19924;-54
2022/09/13 01:26:18;;;;;;;;;;;;;;;18.45;71.26;100897.53;5044151;28;19964;-55
2022/09/13 01:28:46;;;;;;;;;;;;;;;18.43;71.21;100900.44;5018113;28;20404;-54
2022/09/13 01:31:11;;;;;;;;;;;;;;;18.36;71.50;100893.47;5041979;28;19917;-54
2022/09/13 01:33:43;;;;;;;;;;;;;;;18.41;71.58;100904.38;5044502;28;19912;-56
2022/09/13 01:36:31;;;;;;;;;;;;;;;18.38;71.30;100899.47;5051251;28;20006;-52
2022/09/13 01:39:08;;;;;;;;;;;;;;;18.36;71.27;100894.31;5052520;28;19917;-55
2022/09/13 01:41:33;;;;;;;;;;;;;;;18.34;71.09;100893.69;5049137;28;20003;-54
2022/09/13 01:44:07;;;;;;;;;;;;;;;18.33;71.26;100891.22;5050272;28;19916;-54
2022/09/13 01:46:43;;;;;;;;;;;;;;;18.30;71.61;100883.63;5046436;28;20547;-54
2022/09/13 01:49:25;;;;;;;;;;;;;;;18.28;71.53;100889.22;5046403;28;20288;-56
2022/09/13 01:52:03;;;;;;;;;;;;;;;18.29;71.83;100881.97;5054709;28;20319;-54
2022/09/13 01:54:51;;;;;;;;;;;;;;;18.29;71.57;100881.97;5052891;28;19928;-54
2022/09/13 01:57:21;;;;;;;;;;;;;;;18.31;71.24;100885.25;5050927;28;19929;-54
2022/09/13 01:59:53;;;;;;;;;;;;;;;18.32;71.31;100885.03;5048826;28;20079;-53
2022/09/13 02:02:21;;;;;;;;;;;;;;;18.35;71.27;100883.78;5044218;28;20358;-54
2022/09/13 02:04:53;;;;;;;;;;;;;;;18.37;71.26;100881.69;5043543;28;19917;-54
2022/09/13 02:07:41;;;;;;;;;;;;;;;18.38;71.61;100875.25;5050171;28;19964;-54
2022/09/13 02:10:21;;;;;;;;;;;;;;;18.37;71.17;100877.13;5043820;28;19928;-56
2022/09/13 02:12:47;;;;;;;;;;;;;;;18.37;71.29;100873.63;5043023;28;19917;-55
2022/09/13 02:15:16;;;;;;;;;;;;;;;18.36;71.13;100871.97;5047661;28;19920;-55
2022/09/13 02:17:51;;;;;;;;;;;;;;;18.37;71.46;100873.63;5050578;28;19917;-55
2022/09/13 02:20:37;;;;;;;;;;;;;;;18.38;71.60;100872.56;5045187;28;19925;-55
2022/09/13 02:23:06;;;;;;;;;;;;;;;18.37;71.34;100873.63;5047616;28;20036;-54
2022/09/13 02:25:33;;;;;;;;;;;;;;;18.33;72.22;100880.47;5050559;28;19920;-55
2022/09/13 02:28:01;;;;;;;;;;;;;;;18.26;72.15;100877.84;5050299;28;19971;-56
2022/09/13 02:30:28;;;;;;;;;;;;;;;18.24;72.36;100875.38;5050207;28;19962;-55
2022/09/13 02:33:14;;;;;;;;;;;;;;;18.23;72.20;100884.50;5048964;28;19912;-56
2022/09/13 02:35:44;;;;;;;;;;;;;;;18.23;72.33;100876.44;5045651;28;19921;-54
2022/09/13 02:38:12;;;;;;;;;;;;;;;18.25;72.20;100876.22;5048342;28;20346;-55
2022/09/13 02:40:41;;;;;;;;;;;;;;;18.26;72.20;100870.63;5048153;28;19917;-55
2022/09/13 02:43:10;;;;;;;;;;;;;;;18.25;72.02;100877.03;5045705;28;19977;-55
2022/09/13 02:45:41;;;;;;;;;;;;;;;18.25;72.74;100878.91;5051613;28;19920;-54
2022/09/13 02:48:15;;;;;;;;;;;;;;;18.22;72.73;100888.22;5047224;28;19916;-54
2022/09/13 02:50:46;;;;;;;;;;;;;;;18.19;72.61;100887.81;5044873;28;20003;-54
2022/09/13 02:53:20;;;;;;;;;;;;;;;18.16;72.60;100890.94;5047404;28;19923;-55
2022/09/13 02:55:51;;;;;;;;;;;;;;;18.15;72.87;100898.19;5043729;28;20395;-55
2022/09/13 02:58:45;;;;;;;;;;;;;;;18.15;72.48;100895.50;5050617;28;20522;-55
2022/09/13 03:01:11;;;;;;;;;;;;;;;18.15;73.02;100900.06;5032781;28;19971;-55
2022/09/13 03:03:36;;;;;;;;;;;;;;;18.10;73.24;100903.41;5040280;28;19913;-55
2022/09/13 03:06:02;;;;;;;;;;;;;;;18.07;73.66;100901.16;5051609;28;19927;-53
2022/09/13 03:08:28;;;;;;;;;;;;;;;18.06;73.96;100901.38;5044346;28;19920;-52
2022/09/13 03:11:12;;;;;;;;;;;;;;;18.03;73.77;100901.81;5045589;28;19924;-54
2022/09/13 03:13:56;;;;;;;;;;;;;;;18.03;73.86;100897.25;5046838;28;19952;-55
2022/09/13 03:16:35;;;;;;;;;;;;;;;18.05;73.62;100902.41;5050708;28;19925;-55
2022/09/13 03:19:06;;;;;;;;;;;;;;;18.05;74.17;100905.09;5042441;28;19913;-55
2022/09/13 03:21:50;;;;;;;;;;;;;;;17.97;74.55;100898.13;5038445;28;19956;-55
2022/09/13 03:24:21;;;;;;;;;;;;;;;17.88;74.16;100905.63;5046318;28;19925;-55
2022/09/13 03:27:04;;;;;;;;;;;;;;;17.84;74.32;100900.91;5049469;28;19923;-55
2022/09/13 03:29:30;;;;;;;;;;;;;;;17.83;74.47;100896.56;5049373;28;20019;-54
2022/09/13 03:32:01;;;;;;;;;;;;;;;17.81;75.03;100896.78;5044020;28;20285;-54
2022/09/13 03:34:26;;;;;;;;;;;;;;;17.77;74.83;100887.53;5043664;28;19917;-55
2022/09/13 03:37:10;;;;;;;;;;;;;;;17.73;75.30;100888.16;5045297;28;20006;-55
2022/09/13 03:39:40;;;;;;;;;;;;;;;17.66;74.86;100877.44;5040275;28;20797;-52
2022/09/13 03:42:12;;;;;;;;;;;;;;;17.64;75.34;100882.22;5049920;28;19917;-54
2022/09/13 03:44:39;;;;;;;;;;;;;;;17.63;75.30;100886.72;5050631;28;19925;-56
2022/09/13 03:47:05;;;;;;;;;;;;;;;17.61;75.08;100882.63;5047599;28;19923;-54
2022/09/13 03:49:31;;;;;;;;;;;;;;;17.60;75.12;100873.72;5042787;28;19917;-54
2022/09/13 03:51:57;;;;;;;;;;;;;;;17.63;75.16;100877.84;5045980;28;19913;-54
2022/09/13 03:54:24;;;;;;;;;;;;;;;17.63;75.45;100870.63;5043273;28;19912;-53
2022/09/13 03:57:16;;;;;;;;;;;;;;;17.62;75.68;100879.72;5051021;28;20409;-53
2022/09/13 03:59:48;;;;;;;;;;;;;;;17.61;75.73;100878.06;5043085;28;19921;-55
2022/09/13 04:02:14;;;;;;;;;;;;;;;17.60;75.53;100884.47;5041424;28;20384;-56
2022/09/13 04:04:41;;;;;;;;;;;;;;;17.59;75.11;100890.88;5045068;28;20384;-54
2022/09/13 04:07:07;;;;;;;;;;;;;;;17.60;75.38;100897.91;5041280;28;19916;-55
2022/09/13 04:09:32;;;;;;;;;;;;;;;17.60;75.14;100902.44;5046641;28;19924;-55
2022/09/13 04:11:57;;;;;;;;;;;;;;;17.54;75.67;100898.78;5048824;28;19933;-55
2022/09/13 04:14:25;;;;;;;;;;;;;;;17.52;75.96;100911.59;5049362;28;19913;-54
2022/09/13 04:16:50;;;;;;;;;;;;;;;17.53;75.85;100921.28;5043541;28;19920;-55
2022/09/13 04:19:16;;;;;;;;;;;;;;;17.51;76.10;100923.38;5041642;28;19979;-55
2022/09/13 04:21:41;;;;;;;;;;;;;;;17.48;76.08;100921.13;5048318;28;19913;-54
2022/09/13 04:24:06;;;;;;;;;;;;;;;17.45;76.11;100921.53;5055832;28;19919;-55
2022/09/13 04:26:33;;;;;;;;;;;;;;;17.44;76.01;100925.28;5046216;28;20487;-52
2022/09/13 04:28:58;;;;;;;;;;;;;;;17.42;75.82;100913.09;5050836;28;19996;-53
2022/09/13 04:31:24;;;;;;;;;;;;;;;17.39;76.23;100913.53;5047035;28;20012;-55
2022/09/13 04:33:49;;;;;;;;;;;;;;;17.40;76.13;100912.50;5048341;28;19916;-54
2022/09/13 04:36:15;;;;;;;;;;;;;;;17.43;75.88;100918.25;5047676;28;19917;-55
2022/09/13 04:38:40;;;;;;;;;;;;;;;17.49;75.70;100921.94;5048957;28;19920;-55
2022/09/13 04:41:06;;;;;;;;;;;;;;;17.53;75.56;100918.59;5042788;28;19917;-55
2022/09/13 04:43:31;;;;;;;;;;;;;;;17.55;75.35;100921.91;5039343;28;19921;-54
2022/09/13 04:46:00;;;;;;;;;;;;;;;17.60;75.60;100924.75;5048237;28;19956;-55
2022/09/13 04:48:25;;;;;;;;;;;;;;;17.60;75.69;100930.13;5048517;28;20245;-55
2022/09/13 04:50:50;;;;;;;;;;;;;;;17.60;76.10;100929.31;5047569;28;20355;-55
2022/09/13 04:53:15;;;;;;;;;;;;;;;17.57;76.48;100925.19;5041009;28;19925;-54
2022/09/13 04:55:40;;;;;;;;;;;;;;;17.56;76.55;100930.78;5045283;28;19917;-55
2022/09/13 04:58:06;;;;;;;;;;;;;;;17.56;76.21;100931.59;5047973;28;20447;-55
2022/09/13 05:00:31;;;;;;;;;;;;;;;17.58;75.82;100929.53;5046158;28;19971;-55
2022/09/13 05:02:56;;;;;;;;;;;;;;;17.60;75.52;100927.44;5043547;28;19916;-55
2022/09/13 05:05:22;;;;;;;;;;;;;;;17.62;75.55;100922.69;5044548;28;19968;-55
2022/09/13 05:07:51;;;;;;;;;;;;;;;17.65;75.26;100926.81;5044203;28;20292;-54
2022/09/13 05:10:16;;;;;;;;;;;;;;;17.64;75.39;100928.69;5048090;28;20447;-54
2022/09/13 05:12:42;;;;;;;;;;;;;;;17.64;75.68;100934.06;5038652;28;20066;-55
2022/09/13 05:15:07;;;;;;;;;;;;;;;17.57;76.31;100919.81;5048028;28;19940;-54
2022/09/13 05:17:32;;;;;;;;;;;;;;;17.61;76.26;100928.28;5040913;28;20008;-54
2022/09/13 05:19:57;;;;;;;;;;;;;;;17.58;76.07;100932.22;5037932;28;19913;-55
2022/09/13 05:22:23;;;;;;;;;;;;;;;17.58;76.23;100937.56;5046614;28;19989;-54
2022/09/13 05:24:48;;;;;;;;;;;;;;;17.57;76.32;100935.94;5047128;28;19917;-55
2022/09/13 05:27:13;;;;;;;;;;;;;;;17.57;76.24;100937.78;5046902;28;19925;-55
2022/09/13 05:29:38;;;;;;;;;;;;;;;17.57;75.90;100938.63;5044235;28;19917;-55
2022/09/13 05:32:03;;;;;;;;;;;;;;;17.57;76.23;100935.94;5042928;28;19917;-55
2022/09/13 05:34:29;;;;;;;;;;;;;;;17.54;76.37;100947.09;5039876;28;19916;-55
2022/09/13 05:36:54;;;;;;;;;;;;;;;17.53;76.94;100944.63;5045801;28;19917;-54
2022/09/13 05:39:21;;;;;;;;;;;;;;;17.50;77.22;100948.56;5047235;28;20316;-54
2022/09/13 05:41:46;;;;;;;;;;;;;;;17.47;77.22;100951.69;5044486;28;19925;-55
2022/09/13 05:44:11;;;;;;;;;;;;;;;17.48;77.06;100939.09;5039866;28;19913;-52
2022/09/13 05:46:37;;;;;;;;;;;;;;;17.50;76.90;100937.84;5045788;28;19917;-54
2022/09/13 05:49:02;;;;;;;;;;;;;;;17.51;77.05;100946.72;5045451;28;20007;-54
2022/09/13 05:51:27;;;;;;;;;;;;;;;17.49;77.33;100944.25;5041689;28;19917;-55
2022/09/13 05:53:53;;;;;;;;;;;;;;;17.43;76.99;100945.09;5041630;28;19923;-55
2022/09/13 05:56:23;;;;;;;;;;;;;;;17.42;77.96;100939.94;5042698;28;19929;-55
2022/09/13 05:58:49;;;;;;;;;;;;;;;17.31;77.81;100928.81;5043354;28;19947;-55
2022/09/13 06:01:15;;;;;;;;;;;;;;;17.42;77.84;100942.63;5042243;28;20002;-55
2022/09/13 06:03:41;;;;;;;;;;;;;;;17.44;77.98;100946.75;5036851;28;19932;-55
2022/09/13 06:06:06;;;;;;;;;;;;;;;17.45;78.25;100948.41;5042865;28;19916;-55
2022/09/13 06:08:32;;;;;;;;;;;;;;;17.48;78.39;100945.28;5043155;28;20296;-55
2022/09/13 06:11:02;;;;;;;;;;;;;;;17.49;78.07;100944.25;5040602;28;19955;-54
2022/09/13 06:13:28;;;;;;;;;;;;;;;17.50;78.09;100940.50;5037674;28;20000;-54
2022/09/13 06:15:54;;;;;;;;;;;;;;;17.52;77.92;100949.19;5042799;28;19947;-54
2022/09/13 06:18:19;;;;;;;;;;;;;;;17.55;77.93;100951.44;5041837;28;19917;-56
2022/09/13 06:20:45;;;;;;;;;;;;;;;17.58;78.11;100947.50;5039496;28;19925;-54
2022/09/13 06:23:10;;;;;;;;;;;;;;;17.61;78.25;100947.06;5045650;28;19921;-55
2022/09/13 06:25:36;;;;;;;;;;;;;;;17.61;78.49;100947.88;5044145;28;19925;-54
2022/09/13 06:28:01;;;;;;;;;;;;;;;17.64;78.42;100949.34;5044699;28;19970;-55
2022/09/13 06:30:26;;;;;;;;;;;;;;;17.67;78.30;100948.09;5042879;28;19920;-55
2022/09/13 06:32:54;;;;;;;;;;;;;;;17.70;78.18;100945.84;5047256;28;19959;-55
2022/09/13 06:35:19;;;;;;;;;;;;;;;17.74;78.00;100943.53;5044351;28;19925;-55
2022/09/13 06:37:45;;;;;;;;;;;;;;;17.78;77.69;100939.38;5045292;28;19945;-55
2022/09/13 06:40:11;;;;;;;;;;;;;;;17.81;77.60;100937.09;5044546;28;19960;-54
2022/09/13 06:42:36;;;;;;;;;;;;;;;17.86;77.66;100931.88;5043812;28;19925;-54
2022/09/13 06:45:02;;;;;;;;;;;;;;;17.91;78.07;100936.59;5041426;28;19921;-53
2022/09/13 06:47:27;;;;;;;;;;;;;;;17.94;77.86;100930.81;5045325;28;20003;-54
2022/09/13 06:49:52;;;;;;;;;;;;;;;17.98;78.02;100926.66;5046405;28;20011;-54
2022/09/13 06:52:18;;;;;;;;;;;;;;;18.03;77.92;100934.06;5040622;28;19959;-53
2022/09/13 06:54:43;;;;;;;;;;;;;;;18.03;78.32;100934.88;5045494;28;19916;-55
2022/09/13 06:57:08;;;;;;;;;;;;;;;18.04;78.47;100935.72;5038358;28;19920;-56
2022/09/13 06:59:33;;;;;;;;;;;;;;;17.99;78.89;100931.00;5043231;28;20323;-54
2022/09/13 07:01:59;;;;;;;;;;;;;;;17.94;79.10;100931.66;5042596;28;19990;-54
2022/09/13 07:04:24;;;;;;;;;;;;;;;17.93;79.11;100940.75;5041334;28;19931;-55
2022/09/13 07:06:50;;;;;;;;;;;;;;;17.94;79.46;100933.50;5046768;28;20347;-55
2022/09/13 07:09:20;;;;;;;;;;;;;;;17.93;79.52;100932.69;5052880;28;19963;-55
2022/09/13 07:11:46;;;;;;;;;;;;;;;17.97;79.43;100937.63;5041449;28;19917;-56
2022/09/13 07:14:12;;;;;;;;;;;;;;;18.02;80.10;100944.00;5037972;28;19921;-55
2022/09/13 07:16:37;;;;;;;;;;;;;;;18.08;80.07;100943.13;5045514;28;19921;-54
2022/09/13 07:19:06;;;;;;;;;;;;;;;18.15;79.98;100941.19;5042890;28;19978;-55
2022/09/13 07:21:32;;;;;;;;;;;;;;;18.23;80.26;100938.25;5043138;28;19921;-55
2022/09/13 07:23:58;;;;;;;;;;;;;;;18.32;80.08;100943.38;5043719;28;19917;-55
2022/09/13 07:26:24;;;;;;;;;;;;;;;18.40;80.01;100945.78;5039826;28;19944;-55
2022/09/13 07:28:50;;;;;;;;;;;;;;;18.47;79.94;100941.16;5043754;28;20718;-54
2022/09/13 07:31:20;;;;;;;;;;;;;;;18.52;79.79;100941.34;5040440;28;19925;-55
2022/09/13 07:33:45;;;;;;;;;;;;;;;18.58;79.68;100948.53;5047205;28;20004;-55
2022/09/13 07:36:11;;;;;;;;;;;;;;;18.66;79.79;100952.81;5050335;28;20510;-54
2022/09/13 07:38:40;;;;;;;;;;;;;;;18.75;79.41;100954.19;5037445;28;19928;-54
2022/09/13 07:41:07;;;;;;;;;;;;;;;18.83;79.28;100952.03;5043025;28;19981;-55
2022/09/13 07:43:33;;;;;;;;;;;;;;;18.92;79.14;100955.25;5041902;28;19925;-54
2022/09/13 07:46:00;;;;;;;;;;;;;;;18.99;78.73;100961.41;5042111;28;19932;-56
2022/09/13 07:48:26;;;;;;;;;;;;;;;19.09;78.83;100972.50;5041542;28;19923;-55
2022/09/13 07:50:55;;;;;;;;;;;;;;;19.19;78.72;100966.56;5044605;28;19963;-53
2022/09/13 07:53:20;;;;;;;;;;;;;;;19.28;78.42;100967.91;5040674;28;20008;-55
2022/09/13 07:55:46;;;;;;;;;;;;;;;19.36;78.49;100969.47;5044081;28;20040;-55
2022/09/13 07:58:11;;;;;;;;;;;;;;;19.43;78.17;100971.06;5042074;28;19912;-55
2022/09/13 08:00:36;;;;;;;;;;;;;;;19.54;78.27;100971.38;5033004;28;19943;-55
2022/09/13 08:03:01;;;;;;;;;;;;;;;19.64;78.03;100977.03;5030003;28;20408;-54
2022/09/13 08:05:26;;;;;;;;;;;;;;;19.72;77.90;100972.19;5038235;28;20054;-54
2022/09/13 08:07:51;;;;;;;;;;;;;;;19.84;78.34;100976.78;5039355;28;19916;-54
2022/09/13 08:10:16;;;;;;;;;;;;;;;19.93;78.07;100970.00;5041077;28;19986;-55
2022/09/13 08:12:42;;;;;;;;;;;;;;;20.03;78.11;100973.81;5051242;28;19912;-55
2022/09/13 08:15:07;;;;;;;;;;;;;;;20.13;78.09;100970.56;5053343;28;19967;-54
2022/09/13 08:17:32;;;;;;;;;;;;;;;20.22;78.08;100968.34;5048876;28;19917;-55
2022/09/13 08:19:57;;;;;;;;;;;;;;;20.30;77.83;100973.44;5042360;28;19923;-55
2022/09/13 08:22:22;;;;;;;;;;;;;;;20.31;77.55;100959.72;5035922;28;19921;-55
2022/09/13 08:24:48;;;;;;;;;;;;;;;20.45;77.62;100981.09;5041403;28;19970;-56
2022/09/13 08:27:13;;;;;;;;;;;;;;;20.51;77.31;100969.38;5037589;28;19956;-55
2022/09/13 08:29:38;;;;;;;;;;;;;;;20.57;77.34;100971.97;5040355;28;20438;-55
2022/09/13 08:32:03;;;;;;;;;;;;;;;20.65;77.20;100976.19;5039601;28;20361;-54
2022/09/13 08:34:28;;;;;;;;;;;;;;;20.73;76.58;100978.53;5044529;28;20287;-56
2022/09/13 08:36:54;;;;;;;;;;;;;;;20.78;76.45;100991.34;5034754;28;20392;-55
2022/09/13 08:39:19;;;;;;;;;;;;;;;20.85;76.39;100992.06;5039879;28;19917;-53
2022/09/13 08:41:47;;;;;;;;;;;;;;;20.86;76.34;100981.03;5045388;28;19917;-54
2022/09/13 08:44:25;;;;;;;;;;;;;;;20.95;75.93;100985.00;5042479;28;19951;-54
2022/09/13 08:46:52;;;;;;;;;;;;;;;21.00;75.78;100989.69;5046943;28;19961;-55
2022/09/13 08:49:25;;;;;;;;;;;;;;;21.04;75.96;100997.09;5056392;28;20004;-54
2022/09/13 08:51:52;;;;;;;;;;;;;;;21.10;76.02;100997.19;5046408;28;19995;-55
2022/09/13 08:54:19;;;;;;;;;;;;;;;21.15;75.90;100992.75;5043448;28;19921;-54
2022/09/13 08:56:52;;;;;;;;;;;;;;;21.18;75.50;100994.16;5037117;28;19922;-56
2022/09/13 08:59:30;;;;;;;;;;;;;;;21.18;75.37;100992.28;5038744;28;19933;-55
2022/09/13 09:02:04;;;;;;;;;;;;;;;21.26;75.31;100997.34;5048557;28;20016;-55
2022/09/13 09:04:37;;;;;;;;;;;;;;;21.37;75.21;100992.13;5045778;28;20379;-55
2022/09/13 09:07:25;;;;;;;;;;;;;;;21.48;75.20;100985.91;5039245;28;19913;-55
2022/09/13 09:09:50;;;;;;;;;;;;;;;21.59;74.80;100987.75;5041324;28;20261;-54
2022/09/13 09:12:36;;;;;;;;;;;;;;;21.69;74.82;100985.25;5041595;28;21305;-55
2022/09/13 09:15:04;;;;;;;;;;;;;;;21.78;74.58;100991.09;5052838;28;19920;-55
2022/09/13 09:17:38;;;;;;;;;;;;;;;21.84;74.17;100982.84;5041754;28;20289;-55
2022/09/13 09:20:22;;;;;;;;;;;;;;;21.95;74.03;100976.56;5040277;28;19924;-55
2022/09/13 09:22:49;;;;;;;;;;;;;;;22.06;73.79;100971.38;5031817;28;19924;-55
2022/09/13 09:25:14;;;;;;;;;;;;;;;22.14;73.69;100977.19;5042054;28;19924;-55
2022/09/13 09:27:39;;;;;;;;;;;;;;;22.24;73.58;100968.44;5037659;28;19920;-55
2022/09/13 09:30:05;;;;;;;;;;;;;;;22.34;73.37;100965.91;5040751;28;19913;-54
2022/09/13 09:32:49;;;;;;;;;;;;;;;22.47;73.21;100971.00;5044961;28;19917;-54
2022/09/13 09:35:14;;;;;;;;;;;;;;;22.60;73.01;100975.28;5054899;28;20369;-55
2022/09/13 09:37:41;;;;;;;;;;;;;;;22.69;72.68;100973.78;5041194;28;20542;-55
2022/09/13 09:40:11;;;;;;;;;;;;;;;22.82;72.68;100978.88;5035668;28;20003;-56
2022/09/13 09:42:39;;;;;;;;;;;;;;;22.99;72.26;100975.34;5053856;28;19921;-55
2022/09/13 09:45:17;;;;;;;;;;;;;;;23.09;71.92;100976.28;5049702;28;19943;-56
2022/09/13 09:47:44;;;;;;;;;;;;;;;23.13;71.43;100979.31;5045993;28;19917;-55
2022/09/13 09:50:13;;;;;;;;;;;;;;;23.13;71.20;100977.44;5054905;28;19913;-55
2022/09/13 09:52:43;;;;;;;;;;;;;;;23.13;70.78;100977.44;5033705;28;20016;-55
2022/09/13 09:55:23;;;;;;;;;;;;;;;23.11;70.61;100979.56;5040690;28;19916;-55
2022/09/13 09:57:49;;;;;;;;;;;;;;;23.12;70.50;100980.38;5048940;28;19920;-56
2022/09/13 10:00:14;;;;;;;;;;;;;;;23.12;70.40;100978.50;5047589;28;20347;-56
2022/09/13 10:02:43;;;;;;;;;;;;;;;23.13;70.41;100977.44;5049158;28;19917;-53
2022/09/13 10:05:08;;;;;;;;;;;;;;;23.19;70.43;100975.63;5043062;28;19921;-55
2022/09/13 10:07:34;;;;;;;;;;;;;;;23.30;70.48;100980.09;5045643;28;20449;-52
2022/09/13 10:10:04;;;;;;;;;;;;;;;23.41;70.61;100981.03;5045792;28;20376;-55
2022/09/13 10:12:32;;;;;;;;;;;;;;;23.47;69.99;100977.34;5036739;28;20427;-55
2022/09/13 10:15:05;;;;;;;;;;;;;;;23.49;69.51;100977.91;5045715;28;19924;-55
2022/09/13 10:17:31;;;;;;;;;;;;;;;23.45;68.73;100974.06;5045320;28;19925;-56
2022/09/13 10:20:14;;;;;;;;;;;;;;;23.40;68.87;100971.25;5043424;28;19921;-55
2022/09/13 10:22:41;;;;;;;;;;;;;;;23.46;68.41;100968.38;5046019;28;20050;-56
2022/09/13 10:25:12;;;;;;;;;;;;;;;23.57;68.45;100957.69;5053581;28;19916;-55
2022/09/13 10:27:41;;;;;;;;;;;;;;;23.67;68.62;100955.88;5045006;28;19924;-54
2022/09/13 10:30:07;;;;;;;;;;;;;;;23.71;68.34;100957.03;5040255;28;20007;-55
2022/09/13 10:32:32;;;;;;;;;;;;;;;23.72;67.99;100958.69;5039747;28;20486;-55
2022/09/13 10:35:06;;;;;;;;;;;;;;;23.81;68.46;100953.63;5039549;28;19923;-55
2022/09/13 10:37:34;;;;;;;;;;;;;;;23.91;68.00;100959.13;5043444;28;19925;-56
2022/09/13 10:40:02;;;;;;;;;;;;;;;24.01;67.74;100961.97;5045867;28;20441;-55
2022/09/13 10:42:29;;;;;;;;;;;;;;;24.02;66.61;100962.78;5041227;28;19930;-55
2022/09/13 10:44:57;;;;;;;;;;;;;;;24.03;66.19;100950.84;5047898;28;19916;-54
2022/09/13 10:47:26;;;;;;;;;;;;;;;24.07;66.13;100954.69;5045912;28;19956;-55
2022/09/13 10:49:52;;;;;;;;;;;;;;;24.12;66.05;100951.19;5046003;28;19956;-55
2022/09/13 10:52:22;;;;;;;;;;;;;;;24.13;65.96;100948.22;5043066;28;20067;-55
2022/09/13 10:54:48;;;;;;;;;;;;;;;24.07;65.77;100954.69;5048234;28;20007;-55
2022/09/13 10:57:33;;;;;;;;;;;;;;;24.01;65.81;100955.72;5046809;28;20023;-55
2022/09/13 10:59:59;;;;;;;;;;;;;;;23.92;65.71;100959.94;5047754;28;20442;-55
2022/09/13 11:02:27;;;;;;;;;;;;;;;23.79;65.64;100948.44;5040120;28;19964;-56
2022/09/13 11:05:00;;;;;;;;;;;;;;;23.84;66.09;100952.28;5046741;28;19921;-54
2022/09/13 11:07:50;;;;;;;;;;;;;;;23.83;66.06;100958.78;5044233;28;20058;-56
2022/09/13 11:10:28;;;;;;;;;;;;;;;23.86;65.86;100950.13;5035748;28;20372;-56
2022/09/13 11:12:56;;;;;;;;;;;;;;;23.88;65.83;100946.09;5045405;28;19927;-55
2022/09/13 11:15:21;;;;;;;;;;;;;;;23.94;66.22;100938.81;5037643;28;19929;-55
2022/09/13 11:18:01;;;;;;;;;;;;;;;24.02;66.54;100938.38;5045361;28;19917;-56
2022/09/13 11:20:37;;;;;;;;;;;;;;;24.09;66.81;100944.38;5041328;28;19928;-54
2022/09/13 11:23:21;;;;;;;;;;;;;;;24.16;66.91;100928.72;5044665;28;19913;-54
2022/09/13 11:26:10;;;;;;;;;;;;;;;24.24;66.39;100932.84;5041215;28;19998;-53
2022/09/13 11:29:01;;;;;;;;;;;;;;;24.30;66.45;100929.97;5045627;28;19951;-55
2022/09/13 11:31:27;;;;;;;;;;;;;;;24.34;65.88;100931.06;5041528;28;19928;-56
2022/09/13 11:33:52;;;;;;;;;;;;;;;24.33;65.75;100920.47;5044233;28;19923;-55
2022/09/13 11:36:36;;;;;;;;;;;;;;;24.33;65.47;100921.28;5042072;28;19935;-54
2022/09/13 11:39:07;;;;;;;;;;;;;;;24.38;65.03;100917.78;5040321;28;19925;-54
2022/09/13 11:41:41;;;;;;;;;;;;;;;24.39;64.50;100914.81;5041469;28;19967;-56
2022/09/13 11:44:27;;;;;;;;;;;;;;;24.54;64.83;100932.28;5041591;28;19921;-56
2022/09/13 11:47:02;;;;;;;;;;;;;;;24.62;64.70;100939.97;5035093;28;19927;-56
2022/09/13 11:49:30;;;;;;;;;;;;;;;24.69;65.13;100940.56;5041618;28;19923;-55
2022/09/13 11:51:58;;;;;;;;;;;;;;;24.72;65.00;100942.75;5042972;28;19917;-55
2022/09/13 11:54:38;;;;;;;;;;;;;;;24.75;64.61;100942.22;5045534;28;20007;-56
2022/09/13 11:57:10;;;;;;;;;;;;;;;24.76;64.37;100943.03;5040001;28;19975;-54
2022/09/13 11:59:44;;;;;;;;;;;;;;;24.77;64.36;100937.34;5033725;28;20379;-56
2022/09/13 12:02:27;;;;;;;;;;;;;;;24.79;64.23;100929.75;5042278;28;20015;-55
2022/09/13 12:05:00;;;;;;;;;;;;;;;24.81;64.15;100938.44;5047702;28;19921;-55
2022/09/13 12:07:33;;;;;;;;;;;;;;;24.87;64.12;100925.72;5044095;28;19921;-55
2022/09/13 12:10:01;;;;;;;;;;;;;;;24.90;63.95;100925.19;5045233;28;19919;-55
2022/09/13 12:12:30;;;;;;;;;;;;;;;24.86;63.92;100932.22;5037775;28;19925;-55
2022/09/13 12:15:09;;;;;;;;;;;;;;;24.82;63.66;100933.81;5042876;28;20465;-56
2022/09/13 12:17:47;;;;;;;;;;;;;;;24.88;63.85;100927.38;5040238;28;19921;-54
2022/09/13 12:20:15;;;;;;;;;;;;;;;24.94;63.62;100927.13;5040945;28;19917;-53
2022/09/13 12:22:41;;;;;;;;;;;;;;;25.02;63.49;100920.38;5033213;28;19920;-54
2022/09/13 12:25:17;;;;;;;;;;;;;;;25.09;63.22;100929.09;5048155;28;19978;-56
2022/09/13 12:27:49;;;;;;;;;;;;;;;25.24;62.99;100922.94;5042753;28;19920;-55
2022/09/13 12:30:18;;;;;;;;;;;;;;;25.40;62.77;100919.19;5046370;28;20287;-55
2022/09/13 12:32:46;;;;;;;;;;;;;;;25.57;62.51;100914.34;5046750;28;19939;-55
2022/09/13 12:35:27;;;;;;;;;;;;;;;25.67;61.70;100919.00;5046145;28;19927;-56
2022/09/13 12:38:11;;;;;;;;;;;;;;;25.69;61.49;100914.09;5040623;28;19924;-55
2022/09/13 12:40:36;;;;;;;;;;;;;;;25.74;61.13;100914.16;5038148;28;20003;-55
2022/09/13 12:43:12;;;;;;;;;;;;;;;25.73;60.61;100914.38;5034835;28;20054;-56
2022/09/13 12:45:37;;;;;;;;;;;;;;;25.79;60.82;100911.44;5039094;28;19924;-57
2022/09/13 12:48:14;;;;;;;;;;;;;;;25.89;60.09;100905.16;5044296;28;20411;-56